Time;durP1;ratioP1;P1;durP2;ratioP2;P2;SDS_P1;SDS_P2;PMS_P1;PMS_P2;Temp;Humidity;BMP_temperature;BMP_pressure;BME280_temperature;BME280_humidity;BME280_pressure;Samples;Min_cycle;Max_cycle;Signal;HPM_P1;HPM_P2
2024/04/17 00:00:17;;;;;;;6.10;1.95;;;;;;;10.71;44.16;98103.31;5402446;26;20013;-71
2024/04/17 00:02:43;;;;;;;10.77;2.28;;;;;;;11.03;44.40;98155.94;5400162;26;20009;-72
2024/04/17 00:05:12;;;;;;;7.18;2.25;;;;;;;11.10;43.95;98167.84;5371728;26;20014;-71
2024/04/17 00:07:38;;;;;;;4.85;2.00;;;;;;;10.95;44.25;98148.41;5344308;26;20048;-70
2024/04/17 00:10:04;;;;;;;7.57;2.05;;;;;;;11.09;44.32;98160.06;5372828;26;20010;-71
2024/04/17 00:12:30;;;;;;;4.25;2.35;;;;;;;11.09;44.44;98147.91;5371793;26;20003;-69
2024/04/17 00:14:56;;;;;;;7.45;2.10;;;;;;;11.11;44.64;98137.44;5430486;26;20040;-71
2024/04/17 00:17:22;;;;;;;4.93;2.03;;;;;;;11.11;44.71;98132.22;5368325;26;19998;-69
2024/04/17 00:19:49;;;;;;;4.55;2.38;;;;;;;11.09;44.51;98127.09;5371710;26;20039;-71
2024/04/17 00:22:15;;;;;;;5.25;2.20;;;;;;;10.95;44.41;98121.53;5401873;26;20002;-70
2024/04/17 00:24:41;;;;;;;4.47;2.22;;;;;;;11.09;44.84;98163.53;5397393;26;20025;-69
2024/04/17 00:27:07;;;;;;;7.82;2.70;;;;;;;10.94;44.67;98151.06;5369177;26;20347;-69
2024/04/17 00:29:33;;;;;;;8.23;2.75;;;;;;;10.91;44.78;98157.22;5370453;26;20047;-70
2024/04/17 00:31:59;;;;;;;6.50;2.70;;;;;;;10.99;44.81;98152.59;5401935;26;20440;-69
2024/04/17 00:34:25;;;;;;;5.63;2.50;;;;;;;11.08;44.62;98153.16;5401756;26;20045;-70
2024/04/17 00:36:51;;;;;;;5.82;2.78;;;;;;;11.32;45.05;98187.84;5372016;26;20018;-70
2024/04/17 00:39:19;;;;;;;8.60;2.40;;;;;;;11.33;44.88;98170.47;5402186;26;20356;-71
2024/04/17 00:41:47;;;;;;;13.98;8.43;;;;;;;11.32;44.70;98167.03;5400514;26;20034;-71
2024/04/17 00:44:15;;;;;;;6.93;2.25;;;;;;;11.26;44.70;98138.59;5400763;26;19999;-70
2024/04/17 00:46:44;;;;;;;6.35;2.55;;;;;;;11.35;44.71;98140.88;5373046;26;20026;-69
2024/04/17 00:49:10;;;;;;;6.43;2.97;;;;;;;11.50;44.53;98162.84;5431420;26;20029;-70
2024/04/17 00:51:38;;;;;;;4.57;2.80;;;;;;;11.34;44.40;98115.72;5423801;26;20002;-69
2024/04/17 00:54:08;;;;;;;13.70;6.95;;;;;;;11.42;44.42;98123.25;5436176;26;20017;-70
2024/04/17 00:56:35;;;;;;;9.02;3.60;;;;;;;11.58;44.68;98141.72;5455205;26;20052;-71
2024/04/17 00:59:02;;;;;;;8.27;2.45;;;;;;;11.43;44.64;98125.78;5468702;26;20042;-69
2024/04/17 01:01:28;;;;;;;6.47;2.55;;;;;;;11.39;44.87;98116.38;5462388;26;20014;-69
2024/04/17 01:03:54;;;;;;;17.35;11.13;;;;;;;11.50;44.36;98135.97;5468195;26;20444;-70
2024/04/17 01:06:20;;;;;;;14.98;8.45;;;;;;;11.40;44.90;98120.69;5436840;26;20009;-70
2024/04/17 01:08:47;;;;;;;14.38;7.00;;;;;;;11.48;44.73;98125.59;5434626;26;20002;-71
2024/04/17 01:11:13;;;;;;;5.93;2.70;;;;;;;11.42;44.63;98133.66;5465846;26;20030;-71
2024/04/17 01:13:39;;;;;;;13.75;5.20;;;;;;;11.38;44.66;98130.31;5461208;26;20489;-71
2024/04/17 01:16:05;;;;;;;6.15;2.35;;;;;;;11.57;44.71;98166.91;5434912;26;20071;-69
2024/04/17 01:18:32;;;;;;;10.77;5.30;;;;;;;11.53;45.03;98156.69;5436607;26;20018;-70
2024/04/17 01:20:58;;;;;;;9.43;5.25;;;;;;;11.56;44.67;98156.56;5433887;26;20030;-73
2024/04/17 01:23:24;;;;;;;6.80;3.58;;;;;;;11.63;45.01;98162.38;5435526;26;20022;-69
2024/04/17 01:25:50;;;;;;;13.65;5.78;;;;;;;11.57;45.29;98124.41;5393951;26;20006;-70
2024/04/17 01:28:17;;;;;;;9.57;4.40;;;;;;;11.28;45.12;98082.13;5425662;26;20121;-72
2024/04/17 01:30:43;;;;;;;10.10;5.53;;;;;;;11.47;45.38;98100.47;5467157;26;20009;-70
2024/04/17 01:33:09;;;;;;;15.13;6.95;;;;;;;11.47;45.49;98094.41;5466170;26;20006;-71
2024/04/17 01:35:35;;;;;;;5.45;3.42;;;;;;;11.37;45.79;98068.72;5428433;26;20031;-71
2024/04/17 01:38:01;;;;;;;4.78;2.90;;;;;;;11.26;46.00;98053.53;5463101;26;20014;-70
2024/04/17 01:40:27;;;;;;;8.05;4.07;;;;;;;11.48;46.02;98083.91;5434396;26;20002;-71
2024/04/17 01:42:53;;;;;;;8.57;2.75;;;;;;;11.53;46.37;98095.00;5467028;26;19998;-70
2024/04/17 01:45:19;;;;;;;11.30;3.97;;;;;;;11.58;46.38;98116.50;5438811;26;20069;-70
2024/04/17 01:47:45;;;;;;;8.70;3.45;;;;;;;11.29;46.56;98062.97;5431564;26;20002;-70
2024/04/17 01:50:12;;;;;;;5.95;3.00;;;;;;;11.51;46.54;98103.81;5469457;26;20479;-70
2024/04/17 01:52:38;;;;;;;5.55;2.53;;;;;;;11.42;46.67;98098.03;5410149;26;20074;-71
2024/04/17 01:55:06;;;;;;;8.48;4.95;;;;;;;11.35;46.98;98086.19;5469081;26;20556;-70
2024/04/17 01:57:32;;;;;;;7.18;4.43;;;;;;;11.39;47.42;98097.31;5466616;26;19998;-69
2024/04/17 02:00:00;;;;;;;10.02;3.78;;;;;;;11.43;47.65;98099.72;5436976;26;20362;-70
2024/04/17 02:02:30;;;;;;;;;;;;;;;11.40;47.96;98102.44;5469835;26;20017;-70
2024/04/17 02:04:56;;;;;;;5.88;2.78;;;;;;;11.37;48.27;98101.75;5464319;26;20370;-71
2024/04/17 02:07:22;;;;;;;9.65;4.43;;;;;;;11.27;48.18;98094.28;5465301;26;20050;-69
2024/04/17 02:09:53;;;;;;;8.60;5.05;;;;;;;11.20;48.15;98091.97;5461709;26;19999;-70
2024/04/17 02:12:20;;;;;;;7.85;4.30;;;;;;;11.22;48.42;98109.25;5473316;26;20500;-70
2024/04/17 02:14:46;;;;;;;6.72;3.90;;;;;;;11.15;48.70;98098.19;5466859;26;20018;-70
2024/04/17 02:17:12;;;;;;;7.28;4.55;;;;;;;11.23;49.45;98123.09;5466457;26;19999;-71
2024/04/17 02:19:58;;;;;;;9.00;4.47;;;;;;;11.20;49.29;98129.28;5456031;26;20493;-69
2024/04/17 02:22:24;;;;;;;5.57;3.58;;;;;;;11.09;49.71;98123.63;5465903;26;20013;-70
2024/04/17 02:24:50;;;;;;;7.47;3.30;;;;;;;10.95;50.07;98104.19;5466159;26;20310;-71
2024/04/17 02:27:17;;;;;;;5.13;3.20;;;;;;;10.94;50.54;98125.03;5467056;26;20002;-70
2024/04/17 02:29:43;;;;;;;10.98;6.10;;;;;;;10.83;50.75;98123.69;5439166;26;20352;-71
2024/04/17 02:32:09;;;;;;;7.90;5.43;;;;;;;10.85;51.12;98131.44;5438716;26;20025;-70
2024/04/17 02:34:35;;;;;;;14.18;7.45;;;;;;;10.72;51.71;98114.56;5435392;26;20046;-71
2024/04/17 02:37:01;;;;;;;14.98;9.40;;;;;;;10.50;52.07;98090.19;5438037;26;20017;-71
2024/04/17 02:39:28;;;;;;;9.15;4.82;;;;;;;10.48;52.80;98102.38;5437831;26;20002;-69
2024/04/17 02:41:54;;;;;;;8.80;3.38;;;;;;;10.72;53.22;98144.03;5465622;26;20472;-71
2024/04/17 02:44:19;;;;;;;14.95;7.90;;;;;;;10.58;53.75;98128.06;5439933;26;20074;-71
2024/04/17 02:46:46;;;;;;;7.65;3.10;;;;;;;10.58;54.42;98141.09;5456408;26;19994;-71
2024/04/17 02:49:12;;;;;;;6.50;3.00;;;;;;;10.18;54.40;98076.53;5438646;26;20011;-70
2024/04/17 02:51:38;;;;;;;6.90;3.42;;;;;;;10.43;54.72;98137.25;5436874;26;20010;-70
2024/04/17 02:54:05;;;;;;;5.22;2.78;;;;;;;10.12;54.94;98088.91;5406981;26;20031;-69
2024/04/17 02:56:31;;;;;;;10.63;2.92;;;;;;;10.46;55.43;98164.03;5455132;26;20048;-70
2024/04/17 02:58:57;;;;;;;7.28;2.90;;;;;;;9.84;55.29;98082.88;5469474;26;20074;-70
2024/04/17 03:01:23;;;;;;;6.43;2.88;;;;;;;10.41;56.14;98163.34;5434371;26;20037;-69
2024/04/17 03:03:49;;;;;;;9.27;3.28;;;;;;;10.41;56.55;98160.72;5466517;26;20015;-71
2024/04/17 03:06:18;;;;;;;5.70;3.15;;;;;;;10.29;56.62;98132.50;5465674;26;19994;-73
2024/04/17 03:08:46;;;;;;;5.90;2.97;;;;;;;10.32;57.06;98137.59;5464899;26;20043;-71
2024/04/17 03:11:13;;;;;;;5.70;2.95;;;;;;;10.31;57.40;98128.97;5397668;26;20006;-70
2024/04/17 03:13:40;;;;;;;13.70;3.63;;;;;;;10.35;57.84;98135.75;5439206;26;20013;-70
2024/04/17 03:16:06;;;;;;;7.28;2.83;;;;;;;10.46;57.71;98153.63;5435782;26;19999;-71
2024/04/17 03:18:32;;;;;;;8.95;3.20;;;;;;;10.05;58.06;98080.44;5439544;26;20014;-70
2024/04/17 03:21:02;;;;;;;8.95;3.13;;;;;;;10.17;58.53;98115.56;5470298;26;20006;-69
2024/04/17 03:23:31;;;;;;;8.52;3.25;;;;;;;10.31;58.56;98133.31;5465512;26;20073;-70
2024/04/17 03:26:00;;;;;;;5.68;3.20;;;;;;;10.39;59.04;98158.16;5436243;26;19998;-70
2024/04/17 03:28:27;;;;;;;7.93;3.03;;;;;;;10.37;58.93;98164.31;5458124;26;20009;-69
2024/04/17 03:30:54;;;;;;;6.95;2.97;;;;;;;10.33;58.78;98179.16;5459978;26;20081;-69
2024/04/17 03:33:20;;;;;;;6.63;3.17;;;;;;;10.30;59.24;98166.25;5450757;26;20014;-69
2024/04/17 03:35:57;;;;;;;5.10;3.15;;;;;;;9.95;59.38;98111.97;5393701;26;20105;-72
2024/04/17 03:38:25;;;;;;;7.78;3.20;;;;;;;10.31;59.84;98174.91;5451072;26;20541;-72
2024/04/17 03:40:52;;;;;;;6.50;3.17;;;;;;;10.28;60.06;98175.88;5467127;26;20003;-70
2024/04/17 03:43:18;;;;;;;7.57;3.13;;;;;;;10.18;60.72;98164.06;5468089;26;20070;-70
2024/04/17 03:45:44;;;;;;;6.90;3.50;;;;;;;10.05;60.61;98142.81;5406435;26;20003;-70
2024/04/17 03:48:11;;;;;;;7.10;3.15;;;;;;;10.08;60.66;98150.53;5407300;26;20540;-69
2024/04/17 03:50:38;;;;;;;7.90;3.38;;;;;;;10.23;60.74;98176.03;5460714;26;20070;-70
2024/04/17 03:53:05;;;;;;;9.05;3.63;;;;;;;10.14;61.28;98163.31;5407534;26;20014;-70
2024/04/17 03:55:31;;;;;;;10.13;4.10;;;;;;;10.19;61.42;98158.81;5438228;26;20007;-70
2024/04/17 03:57:57;;;;;;;10.82;3.50;;;;;;;10.20;61.46;98163.13;5456974;26;20013;-70
2024/04/17 04:00:23;;;;;;;5.53;3.60;;;;;;;10.36;61.64;98178.19;5435694;26;20080;-68
2024/04/17 04:02:49;;;;;;;8.13;3.75;;;;;;;10.31;60.79;98170.56;5467569;26;20049;-70
2024/04/17 04:05:15;;;;;;;6.50;3.38;;;;;;;10.39;62.13;98178.13;5459841;26;20043;-70
2024/04/17 04:07:41;;;;;;;6.85;3.65;;;;;;;10.43;62.53;98174.53;5466251;26;20388;-70
2024/04/17 04:10:07;;;;;;;8.15;3.50;;;;;;;10.36;62.16;98152.19;5462039;26;20002;-69
2024/04/17 04:12:33;;;;;;;5.93;3.55;;;;;;;10.39;62.24;98141.72;5465050;26;20001;-72
2024/04/17 04:14:59;;;;;;;6.45;3.70;;;;;;;10.58;62.55;98162.75;5463609;26;20074;-73
2024/04/17 04:17:25;;;;;;;5.68;3.47;;;;;;;10.37;63.05;98120.94;5470187;26;20082;-69
2024/04/17 04:19:52;;;;;;;7.55;3.80;;;;;;;10.65;62.76;98179.00;5437385;26;20001;-71
2024/04/17 04:22:18;;;;;;;6.97;3.50;;;;;;;10.40;62.82;98146.88;5466707;26;20041;-71
2024/04/17 04:24:44;;;;;;;9.45;3.72;;;;;;;10.67;62.87;98185.00;5434120;26;20002;-73
2024/04/17 04:27:10;;;;;;;7.55;4.03;;;;;;;10.33;63.23;98118.50;5436646;26;20005;-72
2024/04/17 04:29:37;;;;;;;8.43;3.70;;;;;;;10.79;63.20;98175.91;5465113;26;19998;-71
2024/04/17 04:32:04;;;;;;;8.20;3.92;;;;;;;10.76;63.30;98170.81;5435738;26;19998;-70
2024/04/17 04:34:30;;;;;;;9.43;3.80;;;;;;;10.88;63.37;98179.94;5434223;26;20023;-70
2024/04/17 04:36:56;;;;;;;7.72;3.90;;;;;;;10.74;63.30;98168.25;5436152;26;20033;-70
2024/04/17 04:39:22;;;;;;;6.47;4.28;;;;;;;10.48;62.83;98143.16;5430680;26;20023;-69
2024/04/17 04:41:48;;;;;;;6.75;4.00;;;;;;;10.75;63.17;98195.97;5466186;26;20002;-71
2024/04/17 04:44:14;;;;;;;11.23;4.47;;;;;;;10.69;63.19;98196.19;5451451;26;20063;-71
2024/04/17 04:46:40;;;;;;;11.68;4.95;;;;;;;10.71;63.07;98194.34;5464944;26;20010;-70
2024/04/17 04:49:06;;;;;;;7.95;4.35;;;;;;;10.64;63.51;98180.72;5465881;26;19998;-72
2024/04/17 04:51:33;;;;;;;8.18;4.28;;;;;;;10.37;63.53;98139.13;5434102;26;20002;-70
2024/04/17 04:53:59;;;;;;;8.75;4.30;;;;;;;10.63;63.46;98191.19;5434149;26;20006;-70
2024/04/17 04:56:25;;;;;;;8.38;3.78;;;;;;;10.58;63.23;98193.97;5464524;26;20240;-71
2024/04/17 04:58:51;;;;;;;6.03;3.55;;;;;;;10.48;63.28;98193.41;5459845;26;19994;-69
2024/04/17 05:01:17;;;;;;;6.65;3.80;;;;;;;10.43;63.59;98192.72;5404826;26;19999;-70
2024/04/17 05:03:44;;;;;;;9.10;4.28;;;;;;;10.23;63.30;98162.16;5432936;26;20009;-70
2024/04/17 05:06:10;;;;;;;10.45;4.85;;;;;;;10.40;63.74;98188.47;5437980;26;20454;-70
2024/04/17 05:08:36;;;;;;;9.73;4.22;;;;;;;10.49;64.11;98196.88;5463459;26;20464;-71
2024/04/17 05:11:02;;;;;;;7.63;4.20;;;;;;;10.13;64.50;98135.63;5434075;26;20006;-70
2024/04/17 05:13:28;;;;;;;11.93;4.55;;;;;;;10.43;64.05;98181.47;5432663;26;20035;-71
2024/04/17 05:15:55;;;;;;;11.25;5.07;;;;;;;10.29;64.41;98161.97;5462054;26;20398;-70
2024/04/17 05:18:21;;;;;;;8.15;4.88;;;;;;;10.44;64.30;98191.84;5471923;26;19998;-70
2024/04/17 05:20:50;;;;;;;12.73;5.60;;;;;;;10.50;64.08;98189.00;5472996;26;20006;-71
2024/04/17 05:23:16;;;;;;;9.70;5.47;;;;;;;10.34;64.04;98151.41;5461870;26;20002;-69
2024/04/17 05:25:45;;;;;;;11.02;5.20;;;;;;;10.55;64.41;98181.91;5470776;26;20734;-70
2024/04/17 05:28:11;;;;;;;16.80;4.97;;;;;;;10.30;64.76;98140.25;5428646;26;20371;-70
2024/04/17 05:30:37;;;;;;;9.23;5.15;;;;;;;10.52;64.79;98181.16;5464727;26;20061;-71
2024/04/17 05:33:04;;;;;;;9.43;5.18;;;;;;;10.68;64.69;98199.69;5460347;26;20002;-71
2024/04/17 05:35:30;;;;;;;15.82;5.18;;;;;;;10.47;65.01;98165.72;5405640;26;20529;-72
2024/04/17 05:37:56;;;;;;;14.23;5.00;;;;;;;10.72;64.53;98203.88;5459774;26;20005;-69
2024/04/17 05:40:22;;;;;;;17.85;5.18;;;;;;;10.59;65.05;98187.00;5437512;26;20006;-70
2024/04/17 05:42:49;;;;;;;6.97;3.92;;;;;;;10.65;64.64;98181.59;5439959;26;20372;-69
2024/04/17 05:45:15;;;;;;;8.57;3.15;;;;;;;10.61;64.75;98213.81;5430235;26;20013;-71
2024/04/17 05:47:41;;;;;;;6.15;3.55;;;;;;;10.55;64.54;98204.47;5410251;26;20015;-69
2024/04/17 05:50:07;;;;;;;8.43;3.03;;;;;;;10.63;64.66;98199.00;5459591;26;20007;-70
2024/04/17 05:52:33;;;;;;;6.13;3.20;;;;;;;10.55;64.51;98188.88;5346177;26;20013;-70
2024/04/17 05:54:59;;;;;;;6.97;3.55;;;;;;;10.63;64.44;98189.44;5371713;26;20415;-71
2024/04/17 05:57:27;;;;;;;7.03;3.10;;;;;;;10.88;64.58;98216.34;5431941;26;20062;-71
2024/04/17 05:59:54;;;;;;;3.65;2.63;;;;;;;10.99;64.61;98202.06;5373096;26;20015;-69
2024/04/17 06:02:20;;;;;;;5.50;3.20;;;;;;;11.02;64.10;98193.28;5405605;26;20326;-72
2024/04/17 06:04:46;;;;;;;5.80;3.50;;;;;;;11.13;63.92;98185.94;5342093;26;20476;-70
2024/04/17 06:07:12;;;;;;;8.38;3.38;;;;;;;11.12;63.56;98171.22;5374078;26;20003;-70
2024/04/17 06:09:38;;;;;;;8.52;4.55;;;;;;;11.30;63.28;98185.28;5374245;26;20453;-70
2024/04/17 06:12:05;;;;;;;7.63;3.80;;;;;;;11.17;63.07;98171.03;5346477;26;20002;-71
2024/04/17 06:14:31;;;;;;;5.15;3.70;;;;;;;10.98;62.72;98129.22;5400111;26;20018;-71
2024/04/17 06:16:59;;;;;;;7.15;3.58;;;;;;;11.05;62.50;98117.69;5363259;26;20011;-71
2024/04/17 06:19:26;;;;;;;5.45;3.53;;;;;;;11.23;62.70;98130.91;5363887;26;20014;-70
2024/04/17 06:21:52;;;;;;;5.32;3.38;;;;;;;11.38;62.36;98164.16;5374027;26;20017;-70
2024/04/17 06:24:24;;;;;;;6.10;3.15;;;;;;;11.43;62.24;98180.47;5345419;26;20096;-69
2024/04/17 06:26:58;;;;;;;5.30;3.47;;;;;;;11.44;61.97;98179.56;5365869;26;20049;-70
2024/04/17 06:29:29;;;;;;;5.88;3.28;;;;;;;11.37;61.61;98172.88;5367561;26;20089;-70
2024/04/17 06:31:55;;;;;;;5.05;3.38;;;;;;;11.51;61.18;98198.41;5403988;26;20003;-70
2024/04/17 06:34:22;;;;;;;7.05;3.55;;;;;;;11.48;61.25;98205.50;5402095;26;22304;-69
2024/04/17 06:36:48;;;;;;;7.65;4.20;;;;;;;11.45;60.84;98202.09;5433513;26;20003;-71
2024/04/17 06:39:14;;;;;;;8.10;4.72;;;;;;;11.47;61.42;98207.28;5373604;26;20416;-71
2024/04/17 06:41:41;;;;;;;7.30;4.05;;;;;;;11.13;61.62;98135.63;5374479;26;20007;-72
2024/04/17 06:44:07;;;;;;;10.13;5.03;;;;;;;11.41;61.06;98184.88;5401544;26;19999;-70
2024/04/17 06:46:33;;;;;;;9.70;4.10;;;;;;;11.25;60.81;98174.22;5436133;26;20003;-72
2024/04/17 06:48:59;;;;;;;8.63;4.30;;;;;;;11.28;61.25;98188.88;5401805;26;20745;-69
2024/04/17 06:51:25;;;;;;;7.32;3.75;;;;;;;11.42;61.87;98215.22;5433327;26;19999;-70
2024/04/17 06:53:54;;;;;;;13.88;5.55;;;;;;;11.22;61.52;98179.53;5430839;26;20017;-70
2024/04/17 06:56:20;;;;;;;6.45;4.00;;;;;;;11.47;61.78;98222.91;5362283;26;20007;-70
2024/04/17 06:58:46;;;;;;;7.15;3.88;;;;;;;11.10;61.85;98167.84;5431699;26;20018;-71
2024/04/17 07:01:13;;;;;;;6.65;3.55;;;;;;;11.35;61.74;98211.19;5400218;26;20075;-71
2024/04/17 07:03:39;;;;;;;8.70;3.90;;;;;;;11.30;61.41;98192.28;5401963;26;20006;-70
2024/04/17 07:06:05;;;;;;;8.68;3.92;;;;;;;11.15;61.55;98163.28;5402786;26;20003;-71
2024/04/17 07:08:31;;;;;;;8.02;4.43;;;;;;;11.55;61.41;98210.41;5399186;26;20010;-70
2024/04/17 07:10:58;;;;;;;6.25;4.40;;;;;;;11.38;61.19;98171.97;5336659;26;20047;-70
2024/04/17 07:13:24;;;;;;;10.15;4.22;;;;;;;11.65;61.31;98207.47;5371464;26;20003;-70
2024/04/17 07:15:50;;;;;;;7.82;4.07;;;;;;;11.71;60.93;98223.69;5402249;26;20489;-70
2024/04/17 07:18:19;;;;;;;7.07;4.40;;;;;;;11.54;61.49;98184.44;5401843;26;19999;-71
2024/04/17 07:20:45;;;;;;;5.90;3.97;;;;;;;11.65;60.97;98192.66;5372262;26;20107;-69
2024/04/17 07:23:12;;;;;;;8.20;4.45;;;;;;;11.78;61.67;98206.06;5359443;26;20033;-70
2024/04/17 07:25:38;;;;;;;6.10;3.38;;;;;;;11.95;61.49;98208.00;5388862;26;20042;-69
2024/04/17 07:28:05;;;;;;;6.93;4.25;;;;;;;11.82;61.56;98180.72;5344575;26;20031;-69
2024/04/17 07:30:31;;;;;;;7.85;4.00;;;;;;;11.83;61.53;98170.25;5402466;26;20242;-71
2024/04/17 07:32:57;;;;;;;7.30;3.90;;;;;;;12.00;61.78;98182.66;5370667;26;20007;-72
2024/04/17 07:35:23;;;;;;;8.27;4.20;;;;;;;12.07;61.35;98167.59;5374213;26;20079;-70
2024/04/17 07:37:49;;;;;;;6.55;4.10;;;;;;;12.47;61.13;98181.56;5368008;26;20003;-70
2024/04/17 07:40:15;;;;;;;6.47;4.00;;;;;;;12.59;60.94;98174.13;5401666;26;20011;-70
2024/04/17 07:42:41;;;;;;;7.80;4.53;;;;;;;12.92;60.38;98197.09;5371301;26;19999;-71
2024/04/17 07:45:07;;;;;;;5.68;3.88;;;;;;;12.79;60.04;98144.56;5337838;26;20049;-71
2024/04/17 07:47:33;;;;;;;5.22;3.60;;;;;;;13.15;59.73;98159.47;5398691;26;20015;-69
2024/04/17 07:49:59;;;;;;;6.03;3.80;;;;;;;13.30;59.11;98151.88;5413726;26;20020;-70
2024/04/17 07:52:25;;;;;;;6.80;3.75;;;;;;;13.40;58.52;98137.44;5406657;26;20028;-71
2024/04/17 07:54:51;;;;;;;5.90;3.83;;;;;;;13.60;57.74;98148.75;5436722;26;20006;-69
2024/04/17 07:57:17;;;;;;;5.45;3.80;;;;;;;13.78;57.24;98155.75;5437854;26;20398;-69
2024/04/17 07:59:43;;;;;;;7.40;3.80;;;;;;;13.81;56.76;98154.75;5438283;26;20006;-71
2024/04/17 08:02:09;;;;;;;6.55;4.15;;;;;;;13.74;56.51;98159.41;5456021;26;20464;-70
2024/04/17 08:04:35;;;;;;;9.93;4.63;;;;;;;13.89;55.68;98191.81;5456011;26;19999;-71
2024/04/17 08:07:05;;;;;;;7.57;4.03;;;;;;;13.80;55.49;98200.09;5408981;26;19998;-71
2024/04/17 08:09:34;;;;;;;6.18;4.00;;;;;;;13.59;55.88;98191.50;5390273;26;20018;-71
2024/04/17 08:12:01;;;;;;;5.10;3.92;;;;;;;13.51;55.40;98197.06;5457807;26;20488;-71
2024/04/17 08:14:27;;;;;;;7.10;4.22;;;;;;;13.43;55.80;98200.03;5456525;26;20029;-69
2024/04/17 08:16:53;;;;;;;5.95;4.60;;;;;;;13.35;55.74;98186.47;5438208;26;20125;-72
2024/04/17 08:19:20;;;;;;;6.53;4.75;;;;;;;13.10;55.72;98159.69;5468092;26;19998;-71
2024/04/17 08:21:46;;;;;;;8.57;4.97;;;;;;;13.30;55.06;98191.06;5405693;26;20536;-71
2024/04/17 08:24:12;;;;;;;8.20;5.25;;;;;;;13.44;55.29;98206.97;5451431;26;20030;-70
2024/04/17 08:26:38;;;;;;;9.32;5.35;;;;;;;13.23;54.73;98152.16;5433385;26;20016;-70
2024/04/17 08:29:04;;;;;;;8.50;5.50;;;;;;;13.58;54.77;98208.09;5409158;26;19998;-69
2024/04/17 08:31:32;;;;;;;7.03;4.60;;;;;;;13.37;54.90;98167.19;5436387;26;20351;-71
2024/04/17 08:33:59;;;;;;;8.30;4.57;;;;;;;13.59;54.52;98200.19;5464715;26;20013;-70
2024/04/17 08:36:24;;;;;;;8.43;4.63;;;;;;;13.49;54.42;98207.63;5468460;26;20487;-70
2024/04/17 08:38:55;;;;;;;7.72;4.30;;;;;;;13.50;54.85;98204.09;5436489;26;20768;-70
2024/04/17 08:41:27;;;;;;;5.55;4.50;;;;;;;13.59;53.95;98204.56;5467520;26;19998;-73
2024/04/17 08:44:00;;;;;;;6.57;4.55;;;;;;;13.25;54.48;98167.75;5433480;26;20017;-71
2024/04/17 08:46:30;;;;;;;5.95;4.25;;;;;;;13.43;54.14;98188.75;5468148;26;19998;-70
2024/04/17 08:48:58;;;;;;;8.27;4.73;;;;;;;13.38;54.04;98174.13;5430659;26;20046;-71
2024/04/17 08:51:27;;;;;;;6.53;4.70;;;;;;;13.64;53.80;98206.06;5464064;26;19998;-72
2024/04/17 08:53:55;;;;;;;11.13;5.07;;;;;;;13.73;53.55;98201.28;5454272;26;20010;-71
2024/04/17 08:56:24;;;;;;;5.90;4.57;;;;;;;13.75;53.47;98205.56;5420061;26;20002;-71
2024/04/17 08:58:54;;;;;;;6.40;4.90;;;;;;;13.43;53.32;98183.53;5465997;26;20630;-71
2024/04/17 09:01:32;;;;;;;8.88;5.50;;;;;;;13.45;53.65;98226.97;5464635;26;20005;-71
2024/04/17 09:04:00;;;;;;;23.77;17.48;;;;;;;13.15;53.56;98200.44;5459427;26;19994;-71
2024/04/17 09:06:28;;;;;;;17.20;10.77;;;;;;;13.06;53.93;98199.09;5465901;26;20009;-70
2024/04/17 09:08:56;;;;;;;15.18;11.98;;;;;;;13.02;54.41;98189.69;5421925;26;20009;-69
2024/04/17 09:11:23;;;;;;;21.50;13.30;;;;;;;13.20;54.06;98212.34;5410134;26;20084;-71
2024/04/17 09:13:49;;;;;;;7.55;5.63;;;;;;;12.99;54.03;98187.22;5406784;26;20003;-70
2024/04/17 09:16:15;;;;;;;11.43;6.40;;;;;;;13.11;53.96;98237.13;5406554;26;20006;-72
2024/04/17 09:18:41;;;;;;;9.27;5.95;;;;;;;13.01;54.44;98232.38;5436179;26;20010;-71
2024/04/17 09:21:12;;;;;;;8.10;5.57;;;;;;;13.03;54.35;98243.59;5435726;26;20091;-71
2024/04/17 09:23:47;;;;;;;8.48;5.47;;;;;;;13.01;55.15;98246.28;5395889;26;20010;-70
2024/04/17 09:26:16;;;;;;;7.50;4.53;;;;;;;12.80;55.48;98214.13;5404152;26;20488;-71
2024/04/17 09:28:43;;;;;;;8.73;4.93;;;;;;;12.74;55.54;98225.69;5435761;26;20104;-70
2024/04/17 09:31:10;;;;;;;9.13;6.47;;;;;;;12.35;55.49;98188.16;5426984;26;20318;-70
2024/04/17 09:33:44;;;;;;;8.20;4.30;;;;;;;12.58;55.79;98235.91;5466199;26;20083;-70
2024/04/17 09:36:10;;;;;;;7.20;4.63;;;;;;;12.62;55.63;98257.50;5452569;26;20075;-71
2024/04/17 09:38:36;;;;;;;10.52;4.72;;;;;;;12.29;56.38;98217.09;5465559;26;20484;-71
2024/04/17 09:41:03;;;;;;;6.47;4.30;;;;;;;12.48;56.56;98255.47;5464743;26;20762;-70
2024/04/17 09:43:29;;;;;;;8.52;5.10;;;;;;;12.27;56.43;98239.78;5404439;26;20010;-69
2024/04/17 09:46:09;;;;;;;6.50;4.85;;;;;;;12.41;57.05;98259.25;5432870;26;20070;-69
2024/04/17 09:48:37;;;;;;;8.45;4.80;;;;;;;12.10;57.02;98226.56;5464965;26;20017;-70
2024/04/17 09:51:05;;;;;;;6.18;4.88;;;;;;;12.30;57.60;98262.28;5405367;26;20025;-70
2024/04/17 09:53:35;;;;;;;5.20;3.83;;;;;;;12.14;57.36;98252.47;5461755;26;20014;-69
2024/04/17 09:56:13;;;;;;;7.55;4.80;;;;;;;12.01;57.51;98243.44;5396259;26;19999;-70
2024/04/17 09:58:46;;;;;;;6.97;4.85;;;;;;;12.04;57.89;98246.75;5464372;26;20002;-73
2024/04/17 10:01:14;;;;;;;7.25;4.85;;;;;;;12.16;58.38;98249.81;5436079;26;20010;-72
2024/04/17 10:03:44;;;;;;;8.65;4.90;;;;;;;12.21;59.12;98242.66;5394822;26;20002;-71
2024/04/17 10:06:10;;;;;;;9.77;4.57;;;;;;;12.14;59.35;98208.13;5472447;26;19999;-70
2024/04/17 10:08:37;;;;;;;9.93;5.45;;;;;;;12.40;59.27;98239.28;5471608;26;19998;-71
2024/04/17 10:11:05;;;;;;;10.05;5.20;;;;;;;12.39;59.07;98214.94;5440739;26;20021;-71
2024/04/17 10:13:32;;;;;;;8.43;4.97;;;;;;;12.59;59.31;98229.78;5432211;26;21919;-71
2024/04/17 10:15:58;;;;;;;5.90;4.50;;;;;;;12.69;58.57;98237.25;5428779;26;20006;-73
2024/04/17 10:18:25;;;;;;;7.53;4.47;;;;;;;12.43;58.43;98213.09;5443455;26;20586;-70
2024/04/17 10:20:55;;;;;;;9.32;4.85;;;;;;;12.39;58.42;98224.56;5440641;26;21505;-71
2024/04/17 10:23:28;;;;;;;6.50;4.47;;;;;;;12.34;58.46;98202.13;5428199;26;20006;-70
2024/04/17 10:25:58;;;;;;;6.80;4.78;;;;;;;12.54;58.56;98217.84;5470754;26;20009;-70
2024/04/17 10:28:28;;;;;;;8.98;4.43;;;;;;;12.56;58.18;98222.09;5400371;26;20037;-70
2024/04/17 10:30:55;;;;;;;5.95;4.03;;;;;;;12.52;57.55;98212.69;5466340;26;20035;-71
2024/04/17 10:33:39;;;;;;;9.88;4.63;;;;;;;12.50;57.51;98214.50;5438233;26;20340;-71
2024/04/17 10:36:09;;;;;;;5.70;4.13;;;;;;;12.54;56.68;98223.91;5455585;26;20035;-70
2024/04/17 10:38:37;;;;;;;4.97;4.07;;;;;;;12.36;57.85;98178.56;5461181;26;20013;-72
2024/04/17 10:41:03;;;;;;;6.18;3.97;;;;;;;12.69;57.37;98205.91;5466832;26;20110;-70
2024/04/17 10:43:34;;;;;;;6.97;4.35;;;;;;;12.70;57.25;98181.50;5410014;26;20006;-73
2024/04/17 10:46:06;;;;;;;8.57;4.10;;;;;;;12.98;57.37;98232.50;5392019;26;20465;-70
2024/04/17 10:48:51;;;;;;;6.30;3.85;;;;;;;13.00;56.95;98236.75;5437504;26;20014;-70
2024/04/17 10:51:20;;;;;;;6.43;3.92;;;;;;;13.06;56.38;98253.91;5405740;26;20002;-73
2024/04/17 10:53:47;;;;;;;5.82;4.20;;;;;;;12.75;57.13;98201.28;5430443;26;19998;-70
2024/04/17 10:56:15;;;;;;;6.93;4.18;;;;;;;12.79;56.64;98215.03;5460492;26;20002;-71
2024/04/17 10:58:42;;;;;;;6.50;4.68;;;;;;;12.76;56.32;98226.47;5437320;26;20030;-70
2024/04/17 11:01:12;;;;;;;8.30;4.30;;;;;;;12.87;56.82;98252.09;5469877;26;20022;-71
2024/04/17 11:03:38;;;;;;;9.80;4.32;;;;;;;12.78;56.94;98242.91;5438054;26;20003;-70
2024/04/17 11:06:08;;;;;;;7.80;4.38;;;;;;;12.82;56.62;98264.50;5468276;26;21084;-72
2024/04/17 11:08:41;;;;;;;8.80;4.53;;;;;;;12.80;56.80;98255.88;5469155;26;19998;-70
2024/04/17 11:11:11;;;;;;;6.78;4.10;;;;;;;12.68;56.93;98254.63;5468383;26;20006;-71
2024/04/17 11:13:43;;;;;;;5.20;4.22;;;;;;;12.86;57.06;98284.34;5456850;26;20427;-69
2024/04/17 11:16:12;;;;;;;5.60;4.03;;;;;;;12.81;56.73;98284.53;5467704;26;20025;-69
2024/04/17 11:18:39;;;;;;;6.72;4.82;;;;;;;12.64;56.93;98266.97;5410080;26;20013;-71
2024/04/17 11:21:05;;;;;;;7.35;4.50;;;;;;;12.83;56.45;98283.59;5428432;26;20005;-74
2024/04/17 11:23:44;;;;;;;6.78;4.97;;;;;;;12.92;56.64;98283.22;5467871;26;20005;-71
2024/04/17 11:26:12;;;;;;;6.97;4.70;;;;;;;12.89;56.42;98286.81;5412154;26;20026;-70
2024/04/17 11:28:42;;;;;;;6.30;4.93;;;;;;;12.64;57.01;98240.03;5434450;26;20010;-71
2024/04/17 11:31:10;;;;;;;10.90;5.05;;;;;;;12.66;56.36;98243.41;5470953;26;20012;-70